createdAt,value
2023-05-10T00:04:35.500Z,11.19
2023-05-10T00:19:35.354Z,10.65
2023-05-10T00:34:35.197Z,10.36
2023-05-10T00:49:35.059Z,10.04
2023-05-10T01:04:34.943Z,9.68
2023-05-10T01:19:34.727Z,9.31
2023-05-10T01:34:34.563Z,9.13
2023-05-10T01:49:34.399Z,9.06
2023-05-10T02:04:34.297Z,9.02
2023-05-10T02:19:34.101Z,8.96
2023-05-10T02:34:33.929Z,8.81
2023-05-10T02:49:33.769Z,8.72
2023-05-10T03:04:33.645Z,8.54
2023-05-10T03:19:33.454Z,8.35
2023-05-10T03:34:33.300Z,8.15
2023-05-10T03:49:33.152Z,8.21
2023-05-10T04:04:33.087Z,8.39
2023-05-10T04:19:32.940Z,9.02
2023-05-10T04:34:32.662Z,9.97
2023-05-10T04:49:32.554Z,10.15
2023-05-10T05:04:32.379Z,10.56
2023-05-10T05:19:32.198Z,11.14
2023-05-10T05:34:32.068Z,11.57
2023-05-10T05:49:31.896Z,12.16
2023-05-10T06:04:31.773Z,14.60
2023-05-10T06:19:31.627Z,16.37
2023-05-10T06:34:31.428Z,17.46
2023-05-10T06:49:31.246Z,17.70
2023-05-10T07:04:31.129Z,17.40
2023-05-10T07:19:30.930Z,17.82
2023-05-10T07:34:30.795Z,18.12
2023-05-10T07:49:30.600Z,18.55
2023-05-10T08:04:30.516Z,18.72
2023-05-10T08:19:30.281Z,19.38
2023-05-10T08:34:30.147Z,19.94
2023-05-10T08:49:36.150Z,20.79
2023-05-10T09:04:29.950Z,20.62
2023-05-10T09:19:29.708Z,21.06
2023-05-10T09:34:29.510Z,21.74
2023-05-10T09:49:29.321Z,21.59
2023-05-10T10:04:29.321Z,21.85
2023-05-10T10:19:29.049Z,21.78
2023-05-10T10:34:28.862Z,21.82
2023-05-10T10:49:28.700Z,21.50
2023-05-10T11:04:28.621Z,22.23
2023-05-10T11:19:28.414Z,22.94
2023-05-10T11:34:28.248Z,22.96
2023-05-10T11:49:28.059Z,22.65
2023-05-10T12:04:27.926Z,23.47
2023-05-10T12:19:27.720Z,23.58
2023-05-10T12:34:27.565Z,23.11
2023-05-10T12:49:27.391Z,23.27
2023-05-10T13:04:27.269Z,23.23
2023-05-10T13:19:28.180Z,24.54
2023-05-10T13:34:26.978Z,23.72
2023-05-10T13:49:26.805Z,23.53
2023-05-10T14:04:26.630Z,23.40
2023-05-10T14:19:26.445Z,23.85
2023-05-10T14:34:26.306Z,23.92
2023-05-10T14:49:26.161Z,23.39
2023-05-10T15:04:28.317Z,24.19
2023-05-10T15:19:25.837Z,23.83
2023-05-10T15:34:25.680Z,24.24
2023-05-10T15:49:25.616Z,23.52
2023-05-10T16:04:25.442Z,22.92
2023-05-10T16:19:25.939Z,22.93
2023-05-10T16:34:25.057Z,22.62
2023-05-10T16:49:26.191Z,21.92
2023-05-10T17:04:24.834Z,21.57
2023-05-10T17:19:26.310Z,20.98
2023-05-10T17:34:24.394Z,20.38
2023-05-10T17:49:24.307Z,20.12
2023-05-10T18:04:24.222Z,19.66
2023-05-10T18:19:24.009Z,19.29
2023-05-10T18:34:23.750Z,18.79
2023-05-10T18:49:23.670Z,18.29
2023-05-10T19:04:23.459Z,17.30
2023-05-10T19:19:23.288Z,16.41
2023-05-10T19:34:23.195Z,16.30
2023-05-10T19:49:23.112Z,15.67
2023-05-10T20:04:22.985Z,15.26
2023-05-10T20:19:22.667Z,15.09
2023-05-10T20:34:22.567Z,14.75
2023-05-10T20:49:22.361Z,14.61
2023-05-10T21:04:22.175Z,14.21
2023-05-10T21:19:22.033Z,13.89
2023-05-10T21:34:21.884Z,13.56
2023-05-10T21:49:21.710Z,13.47
2023-05-10T22:04:21.564Z,12.92
2023-05-10T22:19:21.445Z,12.62
2023-05-10T22:34:21.229Z,12.34
2023-05-10T22:49:21.072Z,12.15
2023-05-10T23:04:21.046Z,11.96
2023-05-10T23:19:20.765Z,11.71
2023-05-10T23:34:20.594Z,11.52
2023-05-10T23:49:20.435Z,11.39
